createdAt,value
2018-01-06T00:01:20.934Z,19.71
2018-01-06T00:03:46.746Z,19.65
2018-01-06T00:06:12.566Z,19.72
2018-01-06T00:08:38.370Z,19.73
2018-01-06T00:11:04.219Z,19.76
2018-01-06T00:13:30.034Z,19.72
2018-01-06T00:15:55.880Z,19.63
2018-01-06T00:18:22.522Z,19.63
2018-01-06T00:20:48.325Z,19.67
2018-01-06T00:23:14.138Z,19.69
2018-01-06T00:25:39.950Z,19.68
2018-01-06T00:28:06.538Z,19.64
2018-01-06T00:30:33.181Z,19.64
2018-01-06T00:32:58.988Z,19.55
2018-01-06T00:35:24.793Z,19.55
2018-01-06T00:37:51.461Z,19.58
2018-01-06T00:40:17.266Z,19.53
2018-01-06T00:42:43.068Z,19.61
2018-01-06T00:45:08.923Z,19.59
2018-01-06T00:47:34.737Z,19.58
2018-01-06T00:50:00.552Z,19.54
2018-01-06T00:52:26.367Z,19.57
2018-01-06T00:54:52.186Z,19.59
2018-01-06T00:57:17.998Z,19.58
2018-01-06T00:59:43.802Z,19.57
2018-01-06T01:02:09.645Z,19.57
2018-01-06T01:04:35.458Z,19.57
2018-01-06T01:07:02.262Z,19.49
2018-01-06T01:09:28.072Z,19.52
2018-01-06T01:11:54.769Z,19.55
2018-01-06T01:14:20.574Z,19.56
2018-01-06T01:16:46.409Z,19.56
2018-01-06T01:19:13.097Z,19.54
2018-01-06T01:21:38.902Z,19.59
2018-01-06T01:24:04.750Z,19.62
2018-01-06T01:26:31.489Z,19.56
2018-01-06T01:28:57.486Z,19.54
2018-01-06T01:31:24.168Z,19.52
2018-01-06T01:33:50.989Z,19.52
2018-01-06T01:36:17.699Z,19.54
2018-01-06T01:38:44.499Z,19.51
2018-01-06T01:41:10.301Z,19.52
2018-01-06T01:43:36.109Z,19.54
2018-01-06T01:46:02.779Z,19.71
2018-01-06T01:48:29.486Z,19.67
2018-01-06T01:50:55.338Z,19.65
2018-01-06T01:53:21.156Z,19.79
2018-01-06T01:55:46.965Z,19.80
2018-01-06T01:58:12.779Z,19.75
2018-01-06T02:00:38.574Z,19.68
2018-01-06T02:03:05.226Z,19.60
2018-01-06T02:05:31.029Z,19.65
2018-01-06T02:07:56.838Z,19.67
2018-01-06T02:10:22.649Z,19.74
2018-01-06T02:12:48.454Z,19.72
2018-01-06T02:15:14.262Z,19.80
2018-01-06T02:17:40.899Z,19.75
2018-01-06T02:20:06.709Z,19.59
2018-01-06T02:22:33.462Z,19.59
2018-01-06T02:24:59.293Z,19.54
2018-01-06T02:27:26.007Z,19.55
2018-01-06T02:29:52.809Z,19.67
2018-01-06T02:32:18.622Z,19.67
2018-01-06T02:34:44.440Z,19.60
2018-01-06T02:37:11.096Z,19.60
2018-01-06T02:39:36.911Z,19.62
2018-01-06T02:42:02.718Z,19.56
2018-01-06T02:44:28.576Z,19.56
2018-01-06T02:46:54.386Z,19.59
2018-01-06T02:49:21.068Z,19.62
2018-01-06T02:51:47.814Z,19.66
2018-01-06T02:54:14.582Z,19.57
2018-01-06T02:56:41.389Z,19.57
2018-01-06T02:59:07.198Z,19.50
2018-01-06T03:01:33.832Z,19.55
2018-01-06T03:04:00.634Z,19.53
2018-01-06T03:06:27.341Z,19.60
2018-01-06T03:08:53.149Z,19.57
2018-01-06T03:11:18.959Z,19.70
2018-01-06T03:13:45.781Z,19.55
2018-01-06T03:16:11.587Z,19.48
2018-01-06T03:18:37.398Z,19.51
2018-01-06T03:21:03.210Z,19.56
2018-01-06T03:23:29.954Z,19.66
2018-01-06T03:25:55.819Z,19.51
2018-01-06T03:28:21.626Z,19.77
2018-01-06T03:30:47.436Z,19.74
2018-01-06T03:33:13.247Z,19.55
2018-01-06T03:35:39.054Z,19.58
2018-01-06T03:38:04.897Z,19.64
2018-01-06T03:40:30.742Z,19.72
2018-01-06T03:42:56.586Z,19.64
2018-01-06T03:45:23.246Z,19.70
2018-01-06T03:47:49.050Z,19.55
2018-01-06T03:50:14.861Z,19.53
2018-01-06T03:52:40.667Z,19.52
2018-01-06T03:55:06.475Z,19.66
2018-01-06T03:57:32.281Z,19.74
2018-01-06T03:59:58.089Z,19.74
2018-01-06T04:02:23.903Z,19.70
2018-01-06T04:04:49.711Z,19.82
2018-01-06T04:07:15.556Z,19.77
2018-01-06T04:09:41.361Z,19.85
2018-01-06T04:12:08.189Z,19.85
2018-01-06T04:14:33.993Z,19.88
2018-01-06T04:16:59.803Z,19.69
2018-01-06T04:19:25.613Z,19.82
2018-01-06T04:21:51.447Z,19.81
2018-01-06T04:24:17.269Z,19.81
2018-01-06T04:26:43.077Z,19.86
2018-01-06T04:29:08.884Z,19.72
2018-01-06T04:31:34.691Z,19.59
2018-01-06T04:34:00.489Z,19.66
2018-01-06T04:36:26.294Z,19.61
2018-01-06T04:38:52.096Z,19.62
2018-01-06T04:41:17.957Z,19.69
2018-01-06T04:43:44.674Z,19.71
2018-01-06T04:46:10.478Z,19.63
2018-01-06T04:48:37.297Z,19.55
2018-01-06T04:51:04.054Z,19.59
2018-01-06T04:53:29.904Z,19.66
2018-01-06T04:55:56.575Z,19.61
2018-01-06T04:58:23.341Z,19.68
2018-01-06T05:00:50.061Z,19.60
2018-01-06T05:03:16.889Z,19.61
2018-01-06T05:05:42.694Z,19.49
2018-01-06T05:08:09.486Z,19.52
2018-01-06T05:10:36.310Z,19.54
2018-01-06T05:13:03.045Z,19.59
2018-01-06T05:15:28.890Z,19.62
2018-01-06T05:20:28.394Z,19.47
2018-01-06T05:22:55.181Z,19.51
2018-01-06T05:25:22.042Z,19.57
2018-01-06T05:27:48.850Z,19.62
2018-01-06T05:30:14.695Z,19.60
2018-01-06T05:32:41.398Z,19.55
2018-01-06T05:35:08.194Z,19.51
2018-01-06T05:37:34.002Z,19.55
2018-01-06T05:39:59.845Z,19.54
2018-01-06T05:42:25.646Z,19.59
2018-01-06T05:44:51.457Z,19.56
2018-01-06T05:47:17.272Z,19.49
2018-01-06T05:49:43.113Z,19.58
2018-01-06T05:52:08.971Z,19.57
2018-01-06T05:54:35.626Z,19.56
2018-01-06T05:57:01.433Z,19.54
2018-01-06T05:59:27.256Z,19.55
2018-01-06T06:01:53.069Z,19.61
2018-01-06T06:04:18.926Z,19.63
2018-01-06T06:06:44.757Z,19.66
2018-01-06T06:09:10.579Z,19.74
2018-01-06T06:11:36.391Z,19.76
2018-01-06T06:14:02.194Z,19.71
2018-01-06T06:16:28.010Z,19.66
2018-01-06T06:18:53.849Z,19.61
2018-01-06T06:21:19.667Z,19.58
2018-01-06T06:23:45.469Z,19.67
2018-01-06T06:26:11.286Z,19.67
2018-01-06T06:28:37.085Z,19.62
2018-01-06T06:31:02.890Z,19.66
2018-01-06T06:33:28.726Z,19.60
2018-01-06T06:35:55.369Z,19.60
2018-01-06T06:38:22.121Z,19.59
2018-01-06T06:40:48.897Z,19.59
2018-01-06T06:43:15.692Z,19.64
2018-01-06T06:45:42.493Z,19.63
2018-01-06T06:48:09.327Z,19.60
2018-01-06T06:50:35.137Z,19.54
2018-01-06T06:53:01.017Z,19.45
2018-01-06T06:55:26.862Z,19.56
2018-01-06T06:57:52.685Z,19.47
2018-01-06T07:00:18.490Z,19.35
2018-01-06T07:02:44.308Z,19.12
2018-01-06T07:05:10.166Z,18.43
2018-01-06T07:07:35.990Z,18.35
2018-01-06T07:10:01.800Z,18.35
2018-01-06T07:12:27.601Z,17.98
2018-01-06T07:14:53.401Z,18.17
2018-01-06T07:17:19.253Z,17.81
2018-01-06T07:19:45.071Z,17.83
2018-01-06T07:22:10.878Z,18.11
2018-01-06T07:24:36.698Z,18.12
2018-01-06T07:27:02.549Z,17.66
2018-01-06T07:29:28.366Z,18.14
2018-01-06T07:31:54.216Z,17.86
2018-01-06T07:34:21.031Z,18.00
2018-01-06T07:36:46.845Z,17.75
2018-01-06T07:39:13.197Z,17.92
2018-01-06T07:41:39.977Z,18.33
2018-01-06T07:44:05.801Z,18.62
2018-01-06T07:46:31.608Z,18.72
2018-01-06T07:48:57.407Z,18.87
2018-01-06T07:51:23.207Z,18.89
2018-01-06T07:53:49.060Z,19.00
2018-01-06T07:56:15.909Z,19.06
2018-01-06T07:58:42.709Z,19.00
2018-01-06T08:01:08.694Z,19.06
2018-01-06T08:03:35.449Z,19.03
2018-01-06T08:06:01.257Z,19.18
2018-01-06T08:08:27.078Z,18.59
2018-01-06T08:10:53.690Z,18.54
2018-01-06T08:13:20.419Z,18.10
2018-01-06T08:15:47.193Z,17.89
2018-01-06T08:18:12.997Z,17.84
2018-01-06T08:20:38.819Z,17.71
2018-01-06T08:23:04.667Z,17.75
2018-01-06T08:25:30.679Z,17.84
2018-01-06T08:27:56.517Z,17.93
2018-01-06T08:30:22.409Z,17.93
2018-01-06T08:32:49.025Z,17.80
2018-01-06T08:35:14.829Z,17.69
2018-01-06T08:37:40.658Z,17.71
2018-01-06T08:40:06.461Z,18.17
2018-01-06T08:42:32.265Z,18.30
2018-01-06T08:44:58.074Z,18.61
2018-01-06T08:47:23.922Z,18.90
2018-01-06T08:49:49.734Z,19.04
2018-01-06T08:52:15.612Z,19.27
2018-01-06T08:54:41.491Z,19.55
2018-01-06T08:57:08.252Z,19.55
2018-01-06T08:59:34.102Z,18.77
2018-01-06T09:01:59.905Z,18.33
2018-01-06T09:04:25.834Z,18.06
2018-01-06T09:06:51.629Z,18.03
2018-01-06T09:09:18.417Z,17.96
2018-01-06T09:11:44.217Z,17.91
2018-01-06T09:14:10.026Z,17.90
2018-01-06T09:16:35.830Z,17.94
2018-01-06T09:19:01.635Z,17.89
2018-01-06T09:21:27.445Z,17.82
2018-01-06T09:23:53.293Z,17.73
2018-01-06T09:26:19.090Z,18.14
2018-01-06T09:28:45.749Z,17.98
2018-01-06T09:31:11.554Z,18.29
2018-01-06T09:33:37.359Z,18.35
2018-01-06T09:38:26.540Z,17.66
2018-01-06T09:40:52.434Z,18.50
2018-01-06T09:43:19.299Z,19.11
2018-01-06T09:45:45.133Z,19.54
2018-01-06T09:48:11.758Z,20.01
2018-01-06T09:50:38.554Z,19.97
2018-01-06T09:53:04.413Z,20.11
2018-01-06T09:55:30.218Z,20.17
2018-01-06T09:57:56.051Z,20.18
2018-01-06T10:00:22.879Z,20.42
2018-01-06T10:02:48.745Z,20.47
2018-01-06T10:05:14.559Z,20.35
2018-01-06T10:07:40.387Z,20.46
2018-01-06T10:10:06.198Z,20.57
2018-01-06T10:12:32.900Z,20.58
2018-01-06T10:14:59.657Z,20.58
2018-01-06T10:17:25.457Z,20.70
2018-01-06T10:19:51.519Z,20.81
2018-01-06T10:22:17.370Z,20.77
2018-01-06T10:24:44.094Z,20.91
2018-01-06T10:27:09.917Z,20.89
2018-01-06T10:29:35.729Z,20.98
2018-01-06T10:32:01.546Z,21.04
2018-01-06T10:34:28.319Z,20.98
2018-01-06T10:36:55.173Z,21.10
2018-01-06T10:39:20.990Z,21.01
2018-01-06T10:41:46.937Z,21.07
2018-01-06T10:44:12.762Z,21.06
2018-01-06T10:46:38.570Z,21.15
2018-01-06T10:49:04.421Z,21.20
2018-01-06T10:51:30.227Z,21.18
2018-01-06T10:53:56.044Z,21.24
2018-01-06T10:56:21.858Z,21.18
2018-01-06T10:58:47.676Z,21.22
2018-01-06T11:01:19.627Z,21.14
2018-01-06T11:03:45.455Z,21.20
2018-01-06T11:06:11.296Z,21.37
2018-01-06T11:08:37.121Z,21.05
2018-01-06T11:11:02.995Z,21.14
2018-01-06T11:13:29.739Z,21.15
2018-01-06T11:15:55.733Z,21.32
2018-01-06T11:18:21.605Z,21.33
2018-01-06T11:20:47.572Z,21.32
2018-01-06T11:23:14.366Z,21.25
2018-01-06T11:25:40.366Z,21.35
2018-01-06T11:28:07.162Z,21.24
2018-01-06T11:30:33.972Z,21.11
2018-01-06T11:32:59.817Z,21.21
2018-01-06T11:35:25.638Z,21.26
2018-01-06T11:37:51.653Z,21.07
2018-01-06T11:40:18.520Z,21.10
2018-01-06T11:42:44.326Z,21.13
2018-01-06T11:45:10.138Z,21.13
2018-01-06T11:47:35.945Z,21.25
2018-01-06T11:50:01.756Z,21.22
2018-01-06T11:52:28.481Z,21.27
2018-01-06T11:54:54.329Z,21.35
2018-01-06T11:57:20.143Z,21.41
2018-01-06T11:59:45.984Z,21.33
2018-01-06T12:02:11.789Z,21.45
2018-01-06T12:04:37.602Z,21.38
2018-01-06T12:07:03.409Z,21.37
2018-01-06T12:09:29.236Z,21.37
2018-01-06T12:11:55.064Z,21.43
2018-01-06T12:14:20.886Z,21.34
2018-01-06T12:16:46.709Z,21.36
2018-01-06T12:19:12.530Z,21.39
2018-01-06T12:21:38.463Z,21.30
2018-01-06T12:24:04.343Z,21.35
2018-01-06T12:26:30.146Z,21.27
2018-01-06T12:28:55.962Z,21.13
2018-01-06T12:31:21.801Z,21.34
2018-01-06T12:33:47.615Z,21.30
2018-01-06T12:36:13.531Z,21.18
2018-01-06T12:38:39.522Z,21.25
2018-01-06T12:41:06.321Z,21.20
2018-01-06T12:43:33.159Z,21.24
2018-01-06T12:45:59.058Z,21.29
2018-01-06T12:48:24.906Z,21.20
2018-01-06T12:50:50.722Z,21.30
2018-01-06T12:53:17.530Z,21.37
2018-01-06T12:55:43.391Z,21.39
2018-01-06T12:58:09.221Z,21.32
2018-01-06T13:00:35.056Z,21.32
2018-01-06T13:03:00.870Z,21.37
2018-01-06T13:05:26.683Z,21.36
2018-01-06T13:07:52.555Z,21.36
2018-01-06T13:10:18.384Z,21.32
2018-01-06T13:12:44.206Z,21.30
2018-01-06T13:15:10.848Z,21.29
2018-01-06T13:17:36.674Z,21.34
2018-01-06T13:20:02.530Z,21.39
2018-01-06T13:22:28.418Z,21.35
2018-01-06T13:24:55.243Z,21.24
2018-01-06T13:27:22.011Z,21.34
2018-01-06T13:29:47.849Z,21.43
2018-01-06T13:32:13.734Z,21.51
2018-01-06T13:34:39.589Z,21.48
2018-01-06T13:37:06.590Z,21.46
2018-01-06T13:39:32.626Z,21.52
2018-01-06T13:41:58.608Z,21.47
2018-01-06T13:44:24.597Z,21.55
2018-01-06T13:46:51.503Z,21.62
2018-01-06T13:49:17.427Z,21.54
2018-01-06T13:51:43.249Z,21.55
2018-01-06T13:54:09.070Z,21.32
2018-01-06T13:56:34.878Z,21.48
2018-01-06T13:59:00.698Z,21.55
2018-01-06T14:01:26.538Z,21.45
2018-01-06T14:03:52.555Z,21.45
2018-01-06T14:06:18.445Z,21.42
2018-01-06T14:08:44.490Z,21.39
2018-01-06T14:11:10.343Z,21.31
2018-01-06T14:13:36.145Z,21.07
2018-01-06T14:16:01.989Z,21.22
2018-01-06T14:18:27.793Z,21.39
2018-01-06T14:20:53.642Z,21.36
2018-01-06T14:23:33.550Z,21.29
2018-01-06T14:25:59.405Z,21.26
2018-01-06T14:28:25.218Z,21.33
2018-01-06T14:30:51.060Z,21.40
2018-01-06T14:33:17.857Z,21.35
2018-01-06T14:35:43.673Z,21.40
2018-01-06T14:38:09.483Z,21.43
2018-01-06T14:40:35.399Z,21.39
2018-01-06T14:43:01.230Z,21.28
2018-01-06T14:45:27.934Z,21.35
2018-01-06T14:47:53.740Z,21.46
2018-01-06T14:50:19.587Z,21.40
2018-01-06T14:52:45.396Z,21.37
2018-01-06T14:55:15.203Z,21.32
2018-01-06T14:57:41.129Z,21.31
2018-01-06T15:00:07.795Z,21.37
2018-01-06T15:02:33.610Z,21.34
2018-01-06T15:04:59.424Z,21.45
2018-01-06T15:07:25.247Z,21.49
2018-01-06T15:09:51.070Z,21.67
2018-01-06T15:12:16.890Z,21.71
2018-01-06T15:14:42.697Z,21.71
2018-01-06T15:17:09.340Z,21.72
2018-01-06T15:19:35.153Z,21.61
2018-01-06T15:22:00.973Z,21.55
2018-01-06T15:24:27.738Z,21.65
2018-01-06T15:26:53.542Z,21.59
2018-01-06T15:29:19.423Z,21.58
2018-01-06T15:31:45.251Z,21.47
2018-01-06T15:34:11.120Z,21.47
2018-01-06T15:36:36.923Z,21.55
2018-01-06T15:39:02.771Z,21.57
2018-01-06T15:41:28.674Z,21.62
2018-01-06T15:43:54.591Z,21.70
2018-01-06T15:46:20.423Z,21.62
2018-01-06T15:48:47.449Z,21.46
2018-01-06T15:51:14.098Z,21.52
2018-01-06T15:53:39.913Z,21.53
2018-01-06T15:56:05.836Z,21.65
2018-01-06T15:58:31.653Z,21.44
2018-01-06T16:00:57.466Z,21.45
2018-01-06T16:03:23.290Z,21.54
2018-01-06T16:05:49.120Z,21.65
2018-01-06T16:08:14.938Z,21.55
2018-01-06T16:10:40.762Z,21.62
2018-01-06T16:13:07.756Z,21.64
2018-01-06T16:15:34.690Z,21.60
2018-01-06T16:18:00.526Z,21.42
2018-01-06T16:20:26.346Z,21.34
2018-01-06T16:22:52.299Z,21.22
2018-01-06T16:25:18.242Z,21.21
2018-01-06T16:27:44.069Z,21.09
2018-01-06T16:30:09.889Z,21.08
2018-01-06T16:32:35.726Z,21.06
2018-01-06T16:35:01.606Z,21.04
2018-01-06T16:37:27.426Z,20.99
2018-01-06T16:39:54.190Z,21.08
2018-01-06T16:42:20.911Z,21.01
2018-01-06T16:44:46.742Z,21.05
2018-01-06T16:47:12.558Z,20.80
2018-01-06T16:49:38.365Z,20.94
2018-01-06T16:52:04.178Z,20.99
2018-01-06T16:54:29.999Z,20.75
2018-01-06T16:56:55.874Z,20.88
2018-01-06T16:59:21.854Z,21.00
2018-01-06T17:01:47.669Z,20.94
2018-01-06T17:04:14.353Z,20.88
2018-01-06T17:06:41.009Z,20.97
2018-01-06T17:09:06.906Z,20.99
2018-01-06T17:11:32.734Z,21.00
2018-01-06T17:13:58.618Z,20.77
2018-01-06T17:16:24.485Z,20.62
2018-01-06T17:18:51.327Z,19.69
2018-01-06T17:21:17.140Z,20.04
2018-01-06T17:23:43.790Z,20.52
2018-01-06T17:26:10.542Z,20.59
2018-01-06T17:28:37.390Z,20.69
2018-01-06T17:31:03.235Z,20.75
2018-01-06T17:33:29.105Z,20.93
2018-01-06T17:35:55.086Z,20.95
2018-01-06T17:38:20.948Z,20.89
2018-01-06T17:40:46.922Z,20.84
2018-01-06T17:43:12.775Z,20.93
2018-01-06T17:45:38.634Z,20.61
2018-01-06T17:48:05.287Z,20.69
2018-01-06T17:50:31.108Z,20.62
2018-01-06T17:52:56.939Z,20.73
2018-01-06T17:55:22.802Z,20.76
2018-01-06T17:57:48.743Z,20.82
2018-01-06T18:00:14.626Z,20.77
2018-01-06T18:02:40.456Z,20.85
2018-01-06T18:05:06.274Z,20.76
2018-01-06T18:07:32.742Z,20.86
2018-01-06T18:09:58.594Z,20.82
2018-01-06T18:12:24.412Z,20.95
2018-01-06T18:14:51.153Z,20.65
2018-01-06T18:17:16.973Z,20.76
2018-01-06T18:19:42.794Z,20.69
2018-01-06T18:22:08.608Z,20.80
2018-01-06T18:24:34.424Z,20.64
2018-01-06T18:27:00.415Z,20.75
2018-01-06T18:29:27.102Z,19.46
2018-01-06T18:31:53.867Z,18.63
2018-01-06T18:34:19.690Z,18.13
2018-01-06T18:36:45.513Z,18.17
2018-01-06T18:39:11.354Z,18.09
2018-01-06T18:41:37.195Z,18.10
2018-01-06T18:44:03.047Z,17.72
2018-01-06T18:46:28.947Z,17.77
2018-01-06T18:48:54.769Z,17.83
2018-01-06T18:51:21.659Z,17.86
2018-01-06T18:53:47.704Z,18.20
2018-01-06T18:56:13.515Z,18.42
2018-01-06T18:58:40.286Z,18.62
2018-01-06T19:01:06.964Z,18.60
2018-01-06T19:03:33.805Z,18.55
2018-01-06T19:06:00.749Z,18.72
2018-01-06T19:08:26.699Z,18.87
2018-01-06T19:10:52.534Z,19.00
2018-01-06T19:13:18.406Z,19.07
2018-01-06T19:15:45.190Z,19.18
2018-01-06T19:18:11.034Z,19.20
2018-01-06T19:20:36.889Z,19.24
2018-01-06T19:23:02.719Z,19.29
2018-01-06T19:25:28.584Z,19.29
2018-01-06T19:27:54.397Z,19.29
2018-01-06T19:30:20.298Z,19.30
2018-01-06T19:32:46.115Z,19.26
2018-01-06T19:35:11.966Z,19.29
2018-01-06T19:37:37.817Z,19.29
2018-01-06T19:40:04.640Z,19.34
2018-01-06T19:42:30.614Z,19.31
2018-01-06T19:44:56.459Z,19.29
2018-01-06T19:47:22.270Z,19.31
2018-01-06T19:49:48.085Z,19.27
2018-01-06T19:52:13.926Z,19.29
2018-01-06T19:54:39.774Z,19.33
2018-01-06T19:57:05.608Z,19.33
2018-01-06T19:59:31.466Z,19.30
2018-01-06T20:01:57.336Z,19.25
2018-01-06T20:04:23.162Z,19.22
2018-01-06T20:06:49.980Z,19.34
2018-01-06T20:09:16.782Z,19.29
2018-01-06T20:11:43.569Z,19.24
2018-01-06T20:14:10.290Z,19.18
2018-01-06T20:16:36.135Z,19.15
2018-01-06T20:19:01.958Z,19.21
2018-01-06T20:21:27.778Z,19.28
2018-01-06T20:23:53.629Z,19.27
2018-01-06T20:26:19.471Z,19.26
2018-01-06T20:28:45.300Z,19.26
2018-01-06T20:31:11.131Z,19.19
2018-01-06T20:33:36.986Z,19.28
2018-01-06T20:36:02.806Z,19.26
2018-01-06T20:38:28.786Z,19.66
2018-01-06T20:40:54.864Z,19.76
2018-01-06T20:43:20.700Z,19.89
2018-01-06T20:45:46.564Z,19.87
2018-01-06T20:48:12.479Z,19.99
2018-01-06T20:50:38.526Z,20.06
2018-01-06T20:53:04.498Z,20.19
2018-01-06T20:55:30.318Z,20.20
2018-01-06T20:57:56.190Z,20.17
2018-01-06T21:00:22.063Z,20.13
2018-01-06T21:02:47.917Z,20.20
2018-01-06T21:05:13.925Z,20.03
2018-01-06T21:07:40.586Z,20.10
2018-01-06T21:10:07.501Z,20.21
2018-01-06T21:12:34.306Z,20.24
2018-01-06T21:15:00.286Z,20.18
2018-01-06T21:17:26.119Z,20.26
2018-01-06T21:19:52.941Z,20.30
2018-01-06T21:22:18.770Z,20.24
2018-01-06T21:24:44.595Z,20.31
2018-01-06T21:27:10.617Z,20.25
2018-01-06T21:29:36.766Z,20.37
2018-01-06T21:32:02.620Z,20.38
2018-01-06T21:34:28.485Z,20.08
2018-01-06T21:36:54.385Z,20.33
2018-01-06T21:39:20.207Z,20.32
2018-01-06T21:41:46.064Z,20.26
2018-01-06T21:44:11.929Z,20.26
2018-01-06T21:46:37.756Z,20.34
2018-01-06T21:49:04.395Z,20.35
2018-01-06T21:51:30.214Z,20.39
2018-01-06T21:53:56.895Z,20.33
2018-01-06T21:56:22.716Z,20.42
2018-01-06T21:58:48.601Z,20.37
2018-01-06T22:01:14.465Z,20.28
2018-01-06T22:03:40.311Z,20.21
2018-01-06T22:06:08.334Z,20.35
2018-01-06T22:08:34.167Z,20.29
2018-01-06T22:10:59.992Z,20.33
2018-01-06T22:13:25.813Z,20.40
2018-01-06T22:15:51.748Z,20.37
2018-01-06T22:18:17.712Z,20.33
2018-01-06T22:20:43.685Z,20.24
2018-01-06T22:23:10.912Z,20.46
2018-01-06T22:25:36.750Z,20.29
2018-01-06T22:28:02.584Z,20.50
2018-01-06T22:30:28.429Z,20.30
2018-01-06T22:32:54.454Z,20.23
2018-01-06T22:35:20.270Z,20.31
2018-01-06T22:37:48.569Z,20.37
2018-01-06T22:40:14.483Z,20.37
2018-01-06T22:42:40.390Z,20.38
2018-01-06T22:45:06.205Z,20.37
2018-01-06T22:47:32.950Z,20.38
2018-01-06T22:49:58.775Z,20.42
2018-01-06T22:52:25.594Z,20.42
2018-01-06T22:54:52.280Z,20.44
2018-01-06T22:57:18.256Z,20.40
2018-01-06T22:59:44.071Z,20.37
2018-01-06T23:02:09.895Z,20.32
2018-01-06T23:04:35.775Z,20.47
2018-01-06T23:07:01.586Z,20.35
2018-01-06T23:09:27.402Z,20.45
2018-01-06T23:11:53.217Z,20.54
2018-01-06T23:14:19.034Z,20.43
2018-01-06T23:16:44.874Z,20.49
2018-01-06T23:19:10.702Z,20.52
2018-01-06T23:21:36.527Z,20.46
2018-01-06T23:24:02.345Z,20.46
2018-01-06T23:26:28.360Z,20.56
2018-01-06T23:28:54.389Z,20.33
2018-01-06T23:31:20.402Z,20.40
2018-01-06T23:33:46.219Z,20.48
2018-01-06T23:36:12.092Z,20.47
2018-01-06T23:38:37.944Z,20.49
2018-01-06T23:41:04.722Z,20.42
2018-01-06T23:43:30.539Z,20.43
2018-01-06T23:45:56.363Z,20.50
2018-01-06T23:48:22.191Z,20.38
2018-01-06T23:50:48.030Z,20.36
2018-01-06T23:53:13.867Z,20.46
2018-01-06T23:55:39.682Z,20.42
2018-01-06T23:58:05.503Z,20.29
